Time;durP1;ratioP1;P1;durP2;ratioP2;P2;SDS_P1;SDS_P2;PMS_P1;PMS_P2;Temp;Humidity;BMP_temperature;BMP_pressure;BME280_temperature;BME280_humidity;BME280_pressure;Samples;Min_cycle;Max_cycle;Signal;HPM_P1;HPM_P2
2023/03/10 00:00:32;;;;;;;18.33;9.97;;;1.00;99.90;;;;;;5011437;28;20180;-83
2023/03/10 00:02:58;;;;;;;19.40;10.57;;;1.00;99.90;;;;;;5012378;28;20179;-83
2023/03/10 00:05:24;;;;;;;19.23;10.57;;;1.00;99.90;;;;;;5012377;28;20266;-82
2023/03/10 00:07:49;;;;;;;20.47;10.07;;;1.00;99.90;;;;;;5012142;28;20215;-82
2023/03/10 00:10:17;;;;;;;19.67;9.93;;;1.00;99.90;;;;;;5011565;28;20181;-83
2023/03/10 00:12:43;;;;;;;18.90;10.13;;;1.00;99.90;;;;;;5010857;28;20242;-82
2023/03/10 00:15:09;;;;;;;21.33;9.40;;;1.00;99.90;;;;;;5013290;28;20168;-82
2023/03/10 00:17:35;;;;;;;20.90;10.17;;;1.00;99.90;;;;;;5012256;28;20240;-82
2023/03/10 00:20:06;;;;;;;22.67;11.00;;;1.00;99.90;;;;;;5012041;28;20179;-82
2023/03/10 00:22:35;;;;;;;21.73;10.90;;;1.00;99.90;;;;;;5012917;28;20598;-83
2023/03/10 00:25:01;;;;;;;20.83;10.57;;;1.00;99.90;;;;;;5011503;28;20181;-83
2023/03/10 00:27:26;;;;;;;19.57;10.23;;;1.00;99.90;;;;;;5027801;28;20225;-83
2023/03/10 00:29:52;;;;;;;18.23;9.07;;;1.00;99.90;;;;;;5011868;28;20568;-83
2023/03/10 00:32:18;;;;;;;19.53;9.53;;;1.10;99.90;;;;;;5012118;28;20517;-83
2023/03/10 00:34:44;;;;;;;18.50;9.43;;;1.00;99.90;;;;;;5011558;28;20261;-82
2023/03/10 00:37:10;;;;;;;16.03;8.73;;;1.00;99.90;;;;;;5012411;28;20270;-83
2023/03/10 00:39:35;;;;;;;18.00;9.70;;;1.00;99.90;;;;;;5012758;28;20266;-82
2023/03/10 00:42:01;;;;;;;18.57;9.53;;;1.10;99.90;;;;;;5015470;28;20202;-82
2023/03/10 00:44:27;;;;;;;15.97;8.87;;;1.00;99.90;;;;;;5015878;28;20229;-82
2023/03/10 00:46:53;;;;;;;16.40;9.00;;;1.00;99.90;;;;;;5015452;28;20330;-82
2023/03/10 00:49:19;;;;;;;16.77;9.03;;;1.00;99.90;;;;;;5014695;28;20183;-82
2023/03/10 00:51:45;;;;;;;19.13;9.17;;;1.00;99.90;;;;;;5016033;28;20178;-82
2023/03/10 00:54:11;;;;;;;19.73;9.43;;;1.00;99.90;;;;;;5016423;28;20178;-83
2023/03/10 00:56:37;;;;;;;16.03;8.33;;;1.00;99.90;;;;;;5015416;28;20195;-82
2023/03/10 00:59:03;;;;;;;17.40;8.97;;;1.00;99.90;;;;;;5014792;28;20187;-82
2023/03/10 01:01:34;;;;;;;15.77;7.80;;;1.10;99.90;;;;;;5030953;28;20241;-83
2023/03/10 01:04:04;;;;;;;16.57;8.83;;;1.10;99.90;;;;;;5014469;28;20191;-83
2023/03/10 01:06:29;;;;;;;15.67;7.97;;;1.10;99.90;;;;;;5014932;28;20307;-81
2023/03/10 01:08:55;;;;;;;14.50;7.70;;;1.10;99.90;;;;;;5015233;28;20291;-82
2023/03/10 01:11:24;;;;;;;16.30;8.60;;;1.00;99.90;;;;;;5015146;28;20182;-81
2023/03/10 01:13:51;;;;;;;13.47;7.40;;;1.00;99.90;;;;;;5014163;28;20298;-80
2023/03/10 01:16:17;;;;;;;14.23;7.37;;;1.10;99.90;;;;;;5014344;28;20179;-82
2023/03/10 01:18:43;;;;;;;15.97;8.37;;;1.00;99.90;;;;;;5016326;28;20187;-82
2023/03/10 01:21:21;;;;;;;16.53;7.57;;;1.00;99.90;;;;;;5015910;28;20183;-83
2023/03/10 01:23:47;;;;;;;12.50;6.80;;;1.10;99.90;;;;;;5016311;28;20270;-80
2023/03/10 01:26:13;;;;;;;13.60;7.50;;;1.10;99.90;;;;;;5014411;28;20184;-81
2023/03/10 01:28:39;;;;;;;11.97;6.83;;;1.10;99.90;;;;;;5013655;28;20178;-81
2023/03/10 01:31:06;;;;;;;12.00;7.07;;;1.00;99.90;;;;;;5014491;28;20185;-81
2023/03/10 01:33:39;;;;;;;12.73;6.50;;;1.00;99.90;;;;;;5014710;28;20527;-83
2023/03/10 01:36:14;;;;;;;11.13;6.50;;;1.00;99.90;;;;;;5014770;28;20673;-82
2023/03/10 01:38:41;;;;;;;10.87;5.77;;;1.00;99.90;;;;;;5014430;28;20232;-81
2023/03/10 01:41:07;;;;;;;11.00;5.50;;;1.00;99.90;;;;;;5013420;28;20183;-81
2023/03/10 01:43:38;;;;;;;12.67;5.90;;;1.00;99.90;;;;;;5015228;28;20174;-83
2023/03/10 01:46:22;;;;;;;10.93;5.73;;;1.00;99.90;;;;;;5030627;28;20226;-82
2023/03/10 01:48:48;;;;;;;9.40;5.70;;;1.00;99.90;;;;;;5014600;28;20579;-81
2023/03/10 01:51:14;;;;;;;10.10;5.57;;;1.00;99.90;;;;;;5030298;28;20191;-82
2023/03/10 01:53:40;;;;;;;9.63;5.33;;;1.00;99.90;;;;;;5014899;28;20210;-82
2023/03/10 01:56:06;;;;;;;10.37;5.53;;;1.00;99.90;;;;;;5012473;28;20225;-82
2023/03/10 01:58:38;;;;;;;8.40;4.67;;;1.10;99.90;;;;;;4996577;28;20275;-82
2023/03/10 02:01:05;;;;;;;8.77;4.97;;;1.00;99.90;;;;;;4995728;28;20175;-81
2023/03/10 02:03:42;;;;;;;7.97;4.97;;;1.10;99.90;;;;;;5010589;28;20187;-81
2023/03/10 02:06:13;;;;;;;10.00;5.50;;;1.10;99.90;;;;;;5010094;28;20181;-81
2023/03/10 02:08:44;;;;;;;10.20;5.10;;;1.10;99.90;;;;;;4995218;28;20179;-82
2023/03/10 02:11:12;;;;;;;8.80;4.97;;;1.10;99.90;;;;;;5010682;28;20607;-81
2023/03/10 02:13:37;;;;;;;8.60;4.20;;;1.00;99.90;;;;;;4995469;28;20602;-82
2023/03/10 02:16:03;;;;;;;7.27;4.13;;;1.10;99.90;;;;;;4995397;28;20179;-81
2023/03/10 02:18:30;;;;;;;7.57;4.27;;;1.10;99.90;;;;;;4994838;28;20191;-80
2023/03/10 02:21:17;;;;;;;10.00;4.73;;;1.10;99.90;;;;;;4994717;28;20180;-82
2023/03/10 02:23:56;;;;;;;7.60;4.30;;;1.10;99.90;;;;;;4995340;28;20193;-82
2023/03/10 02:26:40;;;;;;;6.10;3.60;;;1.10;99.90;;;;;;4998012;28;20302;-81
2023/03/10 02:29:12;;;;;;;8.17;4.13;;;1.10;99.90;;;;;;5014318;28;20171;-82
2023/03/10 02:31:38;;;;;;;6.20;3.77;;;1.10;99.90;;;;;;5029274;28;20163;-82
2023/03/10 02:34:05;;;;;;;6.70;3.90;;;1.10;99.90;;;;;;5013313;28;20195;-81
2023/03/10 02:36:31;;;;;;;7.33;4.03;;;1.10;99.90;;;;;;5013610;28;20179;-82
2023/03/10 02:38:56;;;;;;;5.83;3.60;;;1.10;99.90;;;;;;5014835;28;20559;-82
2023/03/10 02:41:24;;;;;;;7.37;4.50;;;1.10;99.90;;;;;;5013031;28;20210;-81
2023/03/10 02:43:52;;;;;;;5.90;3.63;;;1.10;99.90;;;;;;5448203;22;20238;-85
2023/03/10 02:46:17;;;;;;;6.53;3.60;;;1.10;99.90;;;;;;5032474;28;20186;-86
2023/03/10 02:48:43;;;;;;;6.83;3.90;;;1.10;99.90;;;;;;5049353;28;20185;-84
2023/03/10 02:51:15;;;;;;;5.67;3.67;;;1.10;99.90;;;;;;5049647;28;20181;-85
2023/03/10 02:53:40;;;;;;;6.27;3.43;;;1.10;99.90;;;;;;5049884;28;20178;-85
2023/03/10 02:56:06;;;;;;;5.53;3.47;;;1.10;99.90;;;;;;5049396;28;20189;-84
2023/03/10 02:58:32;;;;;;;6.10;4.10;;;1.10;99.90;;;;;;5048355;28;20233;-85
2023/03/10 03:00:58;;;;;;;5.97;3.50;;;1.10;99.90;;;;;;5033729;28;20171;-85
2023/03/10 03:03:24;;;;;;;8.10;3.90;;;1.10;99.90;;;;;;5048892;28;20236;-85
2023/03/10 03:05:50;;;;;;;6.47;3.37;;;1.10;99.90;;;;;;5049761;28;20190;-86
2023/03/10 03:08:18;;;;;;;7.20;3.70;;;1.10;99.90;;;;;;5049489;28;20222;-86
2023/03/10 03:10:44;;;;;;;7.30;4.27;;;1.10;99.90;;;;;;5031724;28;20273;-86
2023/03/10 03:13:10;;;;;;;6.53;3.70;;;1.20;99.90;;;;;;5031884;28;20192;-85
2023/03/10 03:15:36;;;;;;;6.60;3.60;;;1.10;99.90;;;;;;5049236;28;20271;-86
2023/03/10 03:18:03;;;;;;;6.03;3.30;;;1.10;99.90;;;;;;5049367;28;20312;-88
2023/03/10 03:20:30;;;;;;;6.37;3.57;;;1.10;99.90;;;;;;5049341;28;20524;-86
2023/03/10 03:22:57;;;;;;;7.07;3.83;;;1.20;99.90;;;;;;5031822;28;20183;-86
2023/03/10 03:25:25;;;;;;;7.57;3.37;;;1.10;99.90;;;;;;5048745;28;20183;-86
2023/03/10 03:27:51;;;;;;;5.07;3.10;;;1.20;99.90;;;;;;5048895;28;20364;-86
2023/03/10 03:30:23;;;;;;;5.60;3.33;;;1.20;99.90;;;;;;5049210;28;20676;-86
2023/03/10 03:32:49;;;;;;;5.87;3.20;;;1.20;99.90;;;;;;5048993;28;20185;-86
2023/03/10 03:35:19;;;;;;;5.87;3.47;;;1.10;99.90;;;;;;5048725;28;20181;-86
2023/03/10 03:37:45;;;;;;;5.00;3.33;;;1.10;99.90;;;;;;5048155;28;20182;-85
2023/03/10 03:40:12;;;;;;;4.63;2.60;;;1.20;99.90;;;;;;5043018;28;20183;-85
2023/03/10 03:42:49;;;;;;;5.20;3.27;;;1.10;99.90;;;;;;5032349;28;20627;-86
2023/03/10 03:45:16;;;;;;;5.20;2.83;;;1.20;99.90;;;;;;5033828;28;20173;-87
2023/03/10 03:47:43;;;;;;;4.73;2.73;;;1.20;99.90;;;;;;5033292;28;20262;-86
2023/03/10 03:50:11;;;;;;;4.47;2.83;;;1.20;99.90;;;;;;5032787;28;20175;-86
2023/03/10 03:52:38;;;;;;;3.73;2.50;;;1.20;99.90;;;;;;5048222;28;20189;-84
2023/03/10 03:55:05;;;;;;;3.23;2.27;;;1.20;99.90;;;;;;5033215;28;20178;-86
2023/03/10 03:57:30;;;;;;;3.60;2.40;;;1.20;99.90;;;;;;5048163;28;20196;-85
2023/03/10 03:59:56;;;;;;;3.03;2.47;;;1.20;99.90;;;;;;5048479;28;20269;-85
2023/03/10 04:02:22;;;;;;;5.33;3.07;;;1.20;99.90;;;;;;5047672;28;20601;-86
2023/03/10 04:04:47;;;;;;;3.63;2.50;;;1.20;99.90;;;;;;5048151;28;20204;-85
2023/03/10 04:07:13;;;;;;;3.40;2.20;;;1.30;99.90;;;;;;5033320;28;20651;-87
2023/03/10 04:09:40;;;;;;;3.93;2.60;;;1.30;99.90;;;;;;5033538;28;20513;-85
2023/03/10 04:12:08;;;;;;;2.57;2.00;;;1.30;99.90;;;;;;5031745;28;20189;-85
2023/03/10 04:14:34;;;;;;;4.10;2.53;;;1.20;99.90;;;;;;5049182;28;20212;-85
2023/03/10 04:17:00;;;;;;;3.30;2.07;;;1.30;99.90;;;;;;5035363;28;20193;-84
2023/03/10 04:19:26;;;;;;;2.23;1.90;;;1.30;99.90;;;;;;5052346;28;20186;-85
2023/03/10 04:21:52;;;;;;;4.20;2.10;;;1.40;99.90;;;;;;5052500;28;20182;-85
2023/03/10 04:24:17;;;;;;;2.47;1.67;;;1.30;99.90;;;;;;5052671;28;20185;-85
2023/03/10 04:26:43;;;;;;;2.57;1.90;;;1.30;99.90;;;;;;5034966;28;20210;-86
2023/03/10 04:29:09;;;;;;;2.50;1.80;;;1.30;99.90;;;;;;5051536;28;20679;-85
2023/03/10 04:31:35;;;;;;;2.83;1.80;;;1.20;99.90;;;;;;5052417;28;20220;-84
2023/03/10 04:34:01;;;;;;;3.30;1.90;;;1.20;99.90;;;;;;5035817;28;20601;-85
2023/03/10 04:36:26;;;;;;;3.17;1.53;;;1.20;99.90;;;;;;5052373;28;20186;-85
2023/03/10 04:38:52;;;;;;;2.20;1.67;;;1.20;99.90;;;;;;5052064;28;20269;-85
2023/03/10 04:41:18;;;;;;;2.20;1.60;;;1.20;99.90;;;;;;5051136;28;20264;-86
2023/03/10 04:43:44;;;;;;;2.40;1.70;;;1.30;99.90;;;;;;5051585;28;20230;-86
2023/03/10 04:46:10;;;;;;;2.27;1.67;;;1.30;99.90;;;;;;5052213;28;20186;-86
2023/03/10 04:48:36;;;;;;;2.37;1.80;;;1.20;99.90;;;;;;5052257;28;20620;-85
2023/03/10 04:51:08;;;;;;;2.33;1.67;;;1.30;99.90;;;;;;5051568;28;20441;-85
2023/03/10 04:53:35;;;;;;;2.70;1.90;;;1.30;99.90;;;;;;5051422;28;20231;-85
2023/03/10 04:56:04;;;;;;;2.23;1.70;;;1.20;99.90;;;;;;5051640;28;20240;-82
2023/03/10 04:58:30;;;;;;;2.03;1.70;;;1.30;99.90;;;;;;5052054;28;20178;-83
2023/03/10 05:00:56;;;;;;;2.43;1.57;;;1.20;99.90;;;;;;5051906;28;20575;-83
2023/03/10 05:03:22;;;;;;;2.13;1.47;;;1.30;99.90;;;;;;5035083;28;20218;-83
2023/03/10 05:05:48;;;;;;;2.20;1.63;;;1.30;99.90;;;;;;5050714;28;20183;-83
2023/03/10 05:08:14;;;;;;;2.93;1.97;;;1.20;99.90;;;;;;5050661;28;20266;-83
2023/03/10 05:10:44;;;;;;;2.60;1.80;;;1.30;99.90;;;;;;5051560;28;20185;-83
2023/03/10 05:13:11;;;;;;;2.43;1.70;;;1.30;99.90;;;;;;5035117;28;20163;-83
2023/03/10 05:15:41;;;;;;;1.93;1.50;;;1.30;99.90;;;;;;5036347;28;20221;-86
2023/03/10 05:18:09;;;;;;;3.07;2.00;;;1.20;99.90;;;;;;5050608;28;20214;-83
2023/03/10 05:20:35;;;;;;;2.23;1.70;;;1.30;99.90;;;;;;5033628;28;20182;-82
2023/03/10 05:23:01;;;;;;;2.20;1.70;;;1.30;99.90;;;;;;5035664;28;20172;-82
2023/03/10 05:25:27;;;;;;;2.93;2.00;;;1.30;99.90;;;;;;5050835;28;20213;-84
2023/03/10 05:27:53;;;;;;;2.47;1.63;;;1.30;99.90;;;;;;5036198;28;20303;-83
2023/03/10 05:30:18;;;;;;;2.30;1.80;;;1.30;99.90;;;;;;5035032;28;20181;-83
2023/03/10 05:32:44;;;;;;;3.30;2.13;;;1.40;99.90;;;;;;5049447;28;20178;-83
2023/03/10 05:35:10;;;;;;;3.10;2.23;;;1.40;99.90;;;;;;5050318;28;20629;-83
2023/03/10 05:37:39;;;;;;;2.70;2.30;;;1.40;99.90;;;;;;5051177;28;20222;-84
2023/03/10 05:40:13;;;;;;;3.33;2.10;;;1.40;99.90;;;;;;5050941;28;20167;-85
2023/03/10 05:42:39;;;;;;;3.00;2.03;;;1.40;99.90;;;;;;5035091;28;20205;-84
2023/03/10 05:45:06;;;;;;;2.33;2.00;;;1.40;99.90;;;;;;5050068;28;20210;-84
2023/03/10 05:47:32;;;;;;;3.50;2.37;;;1.40;99.90;;;;;;5050207;28;20300;-83
2023/03/10 05:49:59;;;;;;;2.83;2.43;;;1.40;99.90;;;;;;5050820;28;20274;-84
2023/03/10 05:52:25;;;;;;;4.43;2.80;;;1.40;99.90;;;;;;5035793;28;20630;-84
2023/03/10 05:54:51;;;;;;;2.83;2.33;;;1.40;99.90;;;;;;5050558;28;20186;-83
2023/03/10 05:57:17;;;;;;;3.43;2.33;;;1.40;99.90;;;;;;5034428;28;20616;-84
2023/03/10 05:59:42;;;;;;;4.63;2.77;;;1.40;99.90;;;;;;5050458;28;20175;-84
2023/03/10 06:02:08;;;;;;;4.17;2.60;;;1.50;99.90;;;;;;5050169;28;20185;-84
2023/03/10 06:04:34;;;;;;;3.30;2.70;;;1.40;99.90;;;;;;5033365;28;20252;-84
2023/03/10 06:07:00;;;;;;;4.13;2.87;;;1.40;99.90;;;;;;5050759;28;20218;-83
2023/03/10 06:09:27;;;;;;;5.70;3.30;;;1.40;99.90;;;;;;5033306;28;20182;-84
2023/03/10 06:11:53;;;;;;;4.50;3.27;;;1.40;99.90;;;;;;5049673;28;20585;-85
2023/03/10 06:14:18;;;;;;;4.17;2.93;;;1.50;99.90;;;;;;5033803;28;20217;-85
2023/03/10 06:16:50;;;;;;;4.60;3.37;;;1.40;99.90;;;;;;5050630;28;20182;-85
2023/03/10 06:19:16;;;;;;;4.67;3.33;;;1.50;99.90;;;;;;5033659;28;20174;-83
2023/03/10 06:21:42;;;;;;;4.13;2.67;;;1.50;99.90;;;;;;5049388;28;20237;-84
2023/03/10 06:24:08;;;;;;;3.77;2.70;;;1.50;99.90;;;;;;5049256;28;20517;-85
2023/03/10 06:26:34;;;;;;;4.73;3.37;;;1.50;99.90;;;;;;5032448;28;20349;-85
2023/03/10 06:28:59;;;;;;;3.90;2.80;;;1.50;99.90;;;;;;5049587;28;20194;-84
2023/03/10 06:31:25;;;;;;;4.07;3.27;;;1.50;99.90;;;;;;5172860;22;22106;-83
2023/03/10 06:33:52;;;;;;;5.10;2.87;;;1.60;99.90;;;;;;5034628;28;20184;-82
2023/03/10 06:36:19;;;;;;;4.10;3.30;;;1.60;99.90;;;;;;5032194;28;20187;-82
2023/03/10 06:38:45;;;;;;;4.20;2.90;;;1.50;99.90;;;;;;5034426;28;20250;-83
2023/03/10 06:41:11;;;;;;;3.07;2.63;;;1.50;99.90;;;;;;5032569;28;20190;-83
2023/03/10 06:43:37;;;;;;;3.07;2.40;;;1.50;99.90;;;;;;5033185;28;20217;-83
2023/03/10 06:46:05;;;;;;;4.07;2.67;;;1.60;99.90;;;;;;5032705;28;20516;-83
2023/03/10 06:48:31;;;;;;;5.07;2.97;;;1.60;99.90;;;;;;5034505;28;20214;-83
2023/03/10 06:50:56;;;;;;;4.77;2.90;;;1.60;99.90;;;;;;5033127;28;20182;-83
2023/03/10 06:53:23;;;;;;;3.60;2.80;;;1.60;99.90;;;;;;5034484;28;20257;-82
2023/03/10 06:56:06;;;;;;;4.73;3.20;;;1.70;99.90;;;;;;5033828;28;20163;-82
2023/03/10 06:58:35;;;;;;;3.37;2.70;;;1.70;99.90;;;;;;5033024;28;20178;-82
2023/03/10 07:01:01;;;;;;;4.27;3.00;;;1.70;99.90;;;;;;5032195;28;20264;-83
2023/03/10 07:03:27;;;;;;;4.03;2.77;;;1.80;99.90;;;;;;5034310;28;20167;-83
2023/03/10 07:05:54;;;;;;;4.00;3.00;;;1.80;99.90;;;;;;5033165;28;20182;-82
2023/03/10 07:08:20;;;;;;;4.27;2.80;;;1.90;99.90;;;;;;5032805;28;20210;-83
2023/03/10 07:10:47;;;;;;;4.03;3.10;;;1.90;99.90;;;;;;5033850;28;20571;-82
2023/03/10 07:13:14;;;;;;;4.07;3.13;;;1.90;99.90;;;;;;5032727;28;20178;-82
2023/03/10 07:15:40;;;;;;;3.50;2.70;;;1.90;99.90;;;;;;5032721;28;20177;-83
2023/03/10 07:18:06;;;;;;;4.60;2.80;;;2.00;99.90;;;;;;5033943;28;20179;-83
2023/03/10 07:20:32;;;;;;;4.77;3.17;;;1.90;99.90;;;;;;5032292;28;20194;-82
2023/03/10 07:22:58;;;;;;;4.53;3.17;;;1.90;99.90;;;;;;5033752;28;20238;-83
2023/03/10 07:25:24;;;;;;;3.73;3.20;;;1.90;99.90;;;;;;5032485;28;20174;-82
2023/03/10 07:27:50;;;;;;;3.90;3.10;;;1.80;99.90;;;;;;5033629;28;20628;-82
2023/03/10 07:30:16;;;;;;;4.50;3.20;;;1.90;99.90;;;;;;5031709;28;20714;-83
2023/03/10 07:32:42;;;;;;;6.17;3.10;;;1.90;99.90;;;;;;5031341;28;20304;-83
2023/03/10 07:35:08;;;;;;;4.87;3.37;;;1.90;99.90;;;;;;5029999;28;20209;-83
2023/03/10 07:37:39;;;;;;;4.50;3.07;;;1.90;99.90;;;;;;5048173;28;20569;-82
2023/03/10 07:40:06;;;;;;;4.77;3.27;;;1.90;99.90;;;;;;5033336;28;20178;-83
2023/03/10 07:42:32;;;;;;;4.87;3.47;;;1.90;99.90;;;;;;5048684;28;20609;-83
2023/03/10 07:44:58;;;;;;;4.90;3.60;;;1.90;99.90;;;;;;5048505;28;20753;-83
2023/03/10 07:47:23;;;;;;;4.93;3.47;;;1.90;99.90;;;;;;5048742;28;20206;-83
2023/03/10 07:49:49;;;;;;;4.33;3.27;;;1.90;99.90;;;;;;5048067;28;20174;-83
2023/03/10 07:52:15;;;;;;;5.70;4.07;;;1.90;99.90;;;;;;5048507;28;20179;-83
2023/03/10 07:54:43;;;;;;;4.70;3.40;;;1.90;99.90;;;;;;5048744;28;20643;-83
2023/03/10 07:57:09;;;;;;;5.83;4.00;;;2.00;99.90;;;;;;5048760;28;20284;-82
2023/03/10 07:59:35;;;;;;;7.00;4.30;;;2.00;99.90;;;;;;5048319;28;20349;-83
2023/03/10 08:02:01;;;;;;;7.07;3.93;;;2.00;99.90;;;;;;5048533;28;20183;-82
2023/03/10 08:04:27;;;;;;;4.60;3.80;;;2.10;99.90;;;;;;5032885;28;20690;-83
2023/03/10 08:06:53;;;;;;;5.67;3.97;;;2.10;99.90;;;;;;5033117;28;20194;-82
2023/03/10 08:09:18;;;;;;;5.97;3.60;;;2.10;99.90;;;;;;5033215;28;20174;-82
2023/03/10 08:11:44;;;;;;;4.47;3.57;;;2.10;99.90;;;;;;5032377;28;20696;-82
2023/03/10 08:14:10;;;;;;;5.37;3.77;;;2.10;99.90;;;;;;5033133;28;20186;-83
2023/03/10 08:16:36;;;;;;;5.77;4.17;;;2.10;99.90;;;;;;5031932;28;20174;-83
2023/03/10 08:19:02;;;;;;;5.73;4.03;;;2.10;99.90;;;;;;5031897;28;20174;-83
2023/03/10 08:21:28;;;;;;;5.97;4.20;;;2.00;99.90;;;;;;5032745;28;20170;-83
2023/03/10 08:23:54;;;;;;;6.37;4.30;;;2.10;99.90;;;;;;5033035;28;20517;-83
2023/03/10 08:26:20;;;;;;;6.27;3.70;;;2.00;99.90;;;;;;5033117;28;20205;-83
2023/03/10 08:28:46;;;;;;;5.50;4.07;;;2.10;99.90;;;;;;5031939;28;20672;-83
2023/03/10 08:31:17;;;;;;;6.10;4.37;;;2.20;99.90;;;;;;5033059;28;20183;-83
2023/03/10 08:33:43;;;;;;;6.30;3.90;;;2.20;99.90;;;;;;5031712;28;20194;-83
2023/03/10 08:36:18;;;;;;;5.70;4.03;;;2.20;99.90;;;;;;5031429;28;20588;-83
2023/03/10 08:38:44;;;;;;;6.47;4.20;;;2.10;99.90;;;;;;5031700;28;20261;-83
2023/03/10 08:41:19;;;;;;;4.93;4.10;;;2.10;99.90;;;;;;5033031;28;20202;-82
2023/03/10 08:43:45;;;;;;;5.37;3.93;;;2.10;99.90;;;;;;5032796;28;20184;-82
2023/03/10 08:46:12;;;;;;;5.67;4.07;;;2.30;99.90;;;;;;5031496;28;20250;-82
2023/03/10 08:48:38;;;;;;;6.50;3.90;;;2.30;99.90;;;;;;5031873;28;20302;-83
2023/03/10 08:51:05;;;;;;;7.27;4.40;;;2.30;99.90;;;;;;5031229;28;20257;-83
2023/03/10 08:53:33;;;;;;;6.10;3.97;;;2.30;99.90;;;;;;5031574;28;20257;-82
2023/03/10 08:55:59;;;;;;;6.10;4.47;;;2.30;99.90;;;;;;5031814;28;20297;-82
2023/03/10 08:58:25;;;;;;;9.93;4.67;;;2.40;99.90;;;;;;5031104;28;20665;-83
2023/03/10 09:00:51;;;;;;;8.20;4.30;;;2.40;99.90;;;;;;5034505;28;20758;-83
2023/03/10 09:03:17;;;;;;;7.43;4.63;;;2.50;99.90;;;;;;5036341;28;20175;-83
2023/03/10 09:05:42;;;;;;;9.23;4.73;;;2.50;99.90;;;;;;5034828;28;20193;-83
2023/03/10 09:08:08;;;;;;;9.67;4.80;;;2.40;99.90;;;;;;5035033;28;20271;-83
2023/03/10 09:10:35;;;;;;;12.67;4.80;;;2.40;99.90;;;;;;5034949;28;20639;-83
2023/03/10 09:13:01;;;;;;;8.00;4.20;;;2.40;99.90;;;;;;5035002;28;20193;-83
2023/03/10 09:15:27;;;;;;;5.40;3.93;;;2.30;99.90;;;;;;5036291;28;20217;-83
2023/03/10 09:17:54;;;;;;;6.90;3.97;;;2.40;99.90;;;;;;5034456;28;20175;-83
2023/03/10 09:20:24;;;;;;;8.53;5.13;;;2.40;99.90;;;;;;5034623;28;20179;-83
2023/03/10 09:22:51;;;;;;;12.33;7.00;;;2.40;99.90;;;;;;5036186;28;20274;-83
2023/03/10 09:25:17;;;;;;;14.63;9.10;;;2.50;99.90;;;;;;5034865;28;20178;-83
2023/03/10 09:27:43;;;;;;;10.17;6.70;;;2.50;99.90;;;;;;5034860;28;20216;-83
2023/03/10 09:30:09;;;;;;;6.87;4.87;;;2.60;99.90;;;;;;5035678;28;20250;-83
2023/03/10 09:32:35;;;;;;;12.10;7.20;;;2.60;99.90;;;;;;5035338;28;20249;-83
2023/03/10 09:35:01;;;;;;;11.93;6.93;;;2.60;99.90;;;;;;5035835;28;20521;-83
2023/03/10 09:37:26;;;;;;;10.67;6.03;;;2.70;99.90;;;;;;5034591;28;20551;-83
2023/03/10 09:39:52;;;;;;;5.97;3.40;;;2.80;99.90;;;;;;5035377;28;20505;-83
2023/03/10 09:42:32;;;;;;;5.07;3.33;;;2.70;99.90;;;;;;5034188;28;20187;-83
2023/03/10 09:45:05;;;;;;;6.20;3.27;;;2.70;99.90;;;;;;5051194;28;20182;-83
2023/03/10 09:47:56;;;;;;;4.30;2.80;;;2.70;99.90;;;;;;5035648;28;20207;-83
2023/03/10 09:50:33;;;;;;;5.57;3.90;;;2.70;99.90;;;;;;5035938;28;20182;-84
2023/03/10 09:53:40;;;;;;;5.07;3.83;;;2.80;99.90;;;;;;5035703;28;20190;-83
2023/03/10 09:56:15;;;;;;;6.67;4.43;;;2.80;99.90;;;;;;4994044;28;20692;-82
2023/03/10 09:58:55;;;;;;;9.13;5.37;;;2.80;99.90;;;;;;4994227;28;20206;-82
2023/03/10 10:01:24;;;;;;;10.37;6.67;;;2.80;99.90;;;;;;5020139;28;20186;-82
2023/03/10 10:03:53;;;;;;;10.30;5.80;;;2.80;99.90;;;;;;5034052;28;20178;-83
2023/03/10 10:06:23;;;;;;;11.03;6.03;;;2.80;99.90;;;;;;5035849;28;20187;-83
2023/03/10 10:09:11;;;;;;;8.43;5.63;;;2.70;99.90;;;;;;5035701;28;20190;-84
2023/03/10 10:11:38;;;;;;;10.13;6.27;;;2.70;99.90;;;;;;5035399;28;20182;-83
2023/03/10 10:14:33;;;;;;;8.03;5.40;;;2.70;99.90;;;;;;5035482;28;20178;-84
2023/03/10 10:17:16;;;;;;;9.83;6.30;;;2.60;99.90;;;;;;5021535;28;20218;-84
2023/03/10 10:19:44;;;;;;;10.47;6.07;;;2.70;99.90;;;;;;5034079;28;20178;-84
2023/03/10 10:22:25;;;;;;;9.80;6.53;;;2.60;99.90;;;;;;5035358;28;20174;-83
2023/03/10 10:25:14;;;;;;;10.00;6.30;;;2.70;99.90;;;;;;5035471;28;20667;-83
2023/03/10 10:27:41;;;;;;;9.87;6.50;;;2.80;99.90;;;;;;5033990;28;20206;-84
2023/03/10 10:30:28;;;;;;;9.33;6.07;;;2.70;99.90;;;;;;5033740;28;20632;-83
2023/03/10 10:32:59;;;;;;;11.87;6.60;;;2.80;99.90;;;;;;5033315;28;20226;-84
2023/03/10 10:35:28;;;;;;;9.83;6.83;;;2.80;99.90;;;;;;5033788;28;20194;-86
2023/03/10 10:38:04;;;;;;;10.13;6.20;;;2.70;99.90;;;;;;5035145;28;20158;-83
2023/03/10 10:40:45;;;;;;;9.90;5.93;;;2.70;99.90;;;;;;5034934;28;20178;-84
2023/03/10 10:43:18;;;;;;;7.80;5.70;;;2.80;99.90;;;;;;5034767;28;20254;-84
2023/03/10 10:45:52;;;;;;;8.40;5.40;;;2.80;99.90;;;;;;5034880;28;20171;-84
2023/03/10 10:48:37;;;;;;;7.73;5.20;;;2.90;99.90;;;;;;5033325;28;20724;-83
2023/03/10 10:51:04;;;;;;;6.37;4.43;;;2.90;99.90;;;;;;5033408;28;20178;-83
2023/03/10 10:53:41;;;;;;;7.90;4.77;;;2.90;99.90;;;;;;5033338;28;20586;-83
2023/03/10 10:56:16;;;;;;;7.10;4.43;;;2.90;99.90;;;;;;5033311;28;20186;-83
2023/03/10 10:58:44;;;;;;;6.97;4.33;;;2.90;99.90;;;;;;5033367;28;20325;-83
2023/03/10 11:01:15;;;;;;;8.93;5.00;;;2.90;99.90;;;;;;5034564;28;20171;-83
2023/03/10 11:03:49;;;;;;;7.03;4.87;;;2.80;99.90;;;;;;5032751;28;20178;-84
2023/03/10 11:06:23;;;;;;;7.10;4.80;;;2.80;99.90;;;;;;5029939;28;20187;-83
2023/03/10 11:08:51;;;;;;;7.17;5.00;;;2.90;99.90;;;;;;5030512;28;20221;-83
2023/03/10 11:11:20;;;;;;;11.33;6.83;;;2.90;99.90;;;;;;5033007;28;20182;-83
2023/03/10 11:13:48;;;;;;;13.97;7.53;;;2.90;99.90;;;;;;5030255;28;20182;-82
2023/03/10 11:16:37;;;;;;;8.00;5.70;;;2.90;99.90;;;;;;5048934;28;20178;-83
2023/03/10 11:19:21;;;;;;;7.23;5.33;;;2.90;99.90;;;;;;5049054;28;20616;-83
2023/03/10 11:21:53;;;;;;;6.67;4.93;;;2.90;99.90;;;;;;5034139;28;20293;-83
2023/03/10 11:24:23;;;;;;;8.33;5.30;;;2.90;99.90;;;;;;5033796;28;20158;-83
2023/03/10 11:27:01;;;;;;;8.17;4.90;;;2.90;99.90;;;;;;5033976;28;20193;-82
2023/03/10 11:29:54;;;;;;;9.77;6.43;;;2.90;99.90;;;;;;5049677;28;20620;-83
2023/03/10 11:32:44;;;;;;;9.23;5.40;;;3.00;99.90;;;;;;5048963;28;20226;-84
2023/03/10 11:35:18;;;;;;;6.03;4.80;;;3.10;99.90;;;;;;5032785;28;20597;-84
2023/03/10 11:37:50;;;;;;;7.87;5.40;;;3.10;99.90;;;;;;5032846;28;20170;-85
2023/03/10 11:40:23;;;;;;;6.53;4.87;;;3.20;99.90;;;;;;5032879;28;20221;-83
2023/03/10 11:43:15;;;;;;;7.60;4.87;;;3.20;99.90;;;;;;5033875;28;20711;-84
2023/03/10 11:45:51;;;;;;;7.90;5.40;;;3.20;99.90;;;;;;5032665;28;20186;-84
2023/03/10 11:48:40;;;;;;;6.23;4.17;;;3.20;99.90;;;;;;5033256;28;20198;-83
2023/03/10 11:51:16;;;;;;;6.80;4.57;;;3.20;99.90;;;;;;5034038;28;20166;-84
2023/03/10 11:53:54;;;;;;;9.70;5.77;;;3.20;99.90;;;;;;5033784;28;20673;-84
2023/03/10 11:56:22;;;;;;;6.20;4.30;;;3.20;99.90;;;;;;5033899;28;20163;-84
2023/03/10 11:58:54;;;;;;;4.37;3.30;;;3.20;99.90;;;;;;5032381;28;20170;-84
2023/03/10 12:01:49;;;;;;;5.03;3.40;;;3.20;99.90;;;;;;5032346;28;20552;-84
2023/03/10 12:04:24;;;;;;;3.97;3.23;;;3.20;99.90;;;;;;5033182;28;20182;-83
2023/03/10 12:06:59;;;;;;;5.17;3.60;;;3.10;99.90;;;;;;5032364;28;20193;-84
2023/03/10 12:09:36;;;;;;;4.47;3.10;;;3.20;99.90;;;;;;5032130;28;20174;-84
2023/03/10 12:12:03;;;;;;;6.47;3.13;;;3.20;99.90;;;;;;5033589;28;20170;-83
2023/03/10 12:14:31;;;;;;;4.13;3.00;;;3.30;99.90;;;;;;5032282;28;20212;-84
2023/03/10 12:16:58;;;;;;;4.23;3.13;;;3.30;99.90;;;;;;5033560;28;20178;-84
2023/03/10 12:19:24;;;;;;;4.80;3.00;;;3.30;99.90;;;;;;5031863;28;20172;-83
2023/03/10 12:22:28;;;;;;;13.67;7.20;;;3.40;99.90;;;;;;5031992;28;20269;-84
2023/03/10 12:24:54;;;;;;;47.90;23.03;;;3.40;99.90;;;;;;5024754;28;20218;-83
2023/03/10 12:27:20;;;;;;;11.70;6.07;;;3.40;99.90;;;;;;5030673;28;20297;-85
2023/03/10 12:29:46;;;;;;;7.77;4.80;;;3.30;99.90;;;;;;5033303;28;20731;-84
2023/03/10 12:32:39;;;;;;;5.13;4.20;;;3.30;99.90;;;;;;5032582;28;20241;-83
2023/03/10 12:35:38;;;;;;;5.13;3.97;;;3.40;99.90;;;;;;5028459;28;20190;-84
2023/03/10 12:38:30;;;;;;;4.03;3.63;;;3.40;99.90;;;;;;5037346;28;20240;-83
2023/03/10 12:40:57;;;;;;;5.60;3.60;;;3.40;99.90;;;;;;5052486;28;20210;-84
2023/03/10 12:43:42;;;;;;;5.67;3.43;;;3.40;99.90;;;;;;5037188;28;20174;-84
2023/03/10 12:46:11;;;;;;;6.43;3.73;;;3.50;99.90;;;;;;5037198;28;20181;-84
2023/03/10 12:48:46;;;;;;;4.70;3.17;;;3.50;99.90;;;;;;5035476;28;20268;-83
2023/03/10 12:51:22;;;;;;;4.47;3.50;;;3.50;99.90;;;;;;5036982;28;20171;-84
2023/03/10 12:54:01;;;;;;;5.03;3.73;;;3.60;99.90;;;;;;5036646;28;20166;-83
2023/03/10 12:56:40;;;;;;;6.23;3.87;;;3.50;99.90;;;;;;5036252;28;20173;-83
2023/03/10 12:59:18;;;;;;;5.23;4.20;;;3.40;99.90;;;;;;5051824;28;20261;-85
2023/03/10 13:01:48;;;;;;;6.60;4.43;;;3.40;99.90;;;;;;5036699;28;20163;-82
2023/03/10 13:04:20;;;;;;;7.53;4.60;;;3.30;99.90;;;;;;5036253;28;20179;-83
2023/03/10 13:06:47;;;;;;;6.30;4.00;;;3.30;99.90;;;;;;5035383;28;20174;-83